createdAt,value
2016-11-21T00:00:10.914Z,10.84
2016-11-21T00:01:21.946Z,10.92
2016-11-21T00:02:32.980Z,10.84
2016-11-21T00:03:44.002Z,10.8
2016-11-21T00:04:55.066Z,10.83
2016-11-21T00:06:06.141Z,10.85
2016-11-21T00:07:17.368Z,10.84
2016-11-21T00:08:28.393Z,10.84
2016-11-21T00:09:39.444Z,10.84
2016-11-21T00:10:50.669Z,10.79
2016-11-21T00:12:01.744Z,10.77
2016-11-21T00:13:12.784Z,10.88
2016-11-21T00:14:24.219Z,10.84
2016-11-21T00:15:35.657Z,10.84
2016-11-21T00:16:46.689Z,10.77
2016-11-21T00:17:57.775Z,10.76
2016-11-21T00:19:08.797Z,10.75
2016-11-21T00:20:20.028Z,10.8
2016-11-21T00:21:31.048Z,10.67
2016-11-21T00:22:42.086Z,10.7
2016-11-21T00:23:53.168Z,10.61
2016-11-21T00:25:04.204Z,10.63
2016-11-21T00:26:15.241Z,10.66
2016-11-21T00:27:26.269Z,10.67
2016-11-21T00:28:37.302Z,10.63
2016-11-21T00:29:48.399Z,10.59
2016-11-21T00:30:59.438Z,10.67
2016-11-21T00:32:10.477Z,10.55
2016-11-21T00:33:21.504Z,10.59
2016-11-21T00:34:32.534Z,10.57
2016-11-21T00:35:43.607Z,10.54
2016-11-21T00:36:54.641Z,10.46
2016-11-21T00:38:05.893Z,10.52
2016-11-21T00:39:17.114Z,10.51
2016-11-21T00:40:28.160Z,10.51
2016-11-21T00:41:39.252Z,10.42
2016-11-21T00:42:50.292Z,10.36
2016-11-21T00:44:01.539Z,10.41
2016-11-21T00:45:12.599Z,10.42
2016-11-21T00:46:23.630Z,10.41
2016-11-21T00:47:34.707Z,10.32
2016-11-21T00:48:45.740Z,10.32
2016-11-21T00:49:56.775Z,10.29
2016-11-21T00:51:07.799Z,10.29
2016-11-21T00:52:18.833Z,10.32
2016-11-21T00:53:29.924Z,10.32
2016-11-21T00:54:40.946Z,10.32
2016-11-21T00:55:51.964Z,10.32
2016-11-21T00:57:02.987Z,10.25
2016-11-21T00:58:14.024Z,10.28
2016-11-21T00:59:25.102Z,10.18
2016-11-21T01:00:36.147Z,10.13
2016-11-21T01:01:47.182Z,10.13
2016-11-21T01:02:58.213Z,10.11
2016-11-21T01:04:09.447Z,10.07
2016-11-21T01:05:20.531Z,10.08
2016-11-21T01:06:31.550Z,10.03
2016-11-21T01:07:42.782Z,10.1
2016-11-21T01:08:53.813Z,10.02
2016-11-21T01:10:04.850Z,10.02
2016-11-21T01:11:15.930Z,9.99
2016-11-21T01:12:26.967Z,9.98
2016-11-21T01:13:37.992Z,9.98
2016-11-21T01:14:49.027Z,9.84
2016-11-21T01:16:00.268Z,9.89
2016-11-21T01:17:11.336Z,9.81
2016-11-21T01:18:22.395Z,9.8
2016-11-21T01:19:33.636Z,9.77
2016-11-21T01:20:44.682Z,9.66
2016-11-21T01:21:55.944Z,9.75
2016-11-21T01:23:07.014Z,9.71
2016-11-21T01:24:18.044Z,9.8
2016-11-21T01:25:29.065Z,9.78
2016-11-21T01:26:40.103Z,9.71
2016-11-21T01:27:51.118Z,9.78
2016-11-21T01:29:02.196Z,9.84
2016-11-21T01:30:13.209Z,9.64
2016-11-21T01:31:24.235Z,9.64
2016-11-21T01:32:35.272Z,9.7
2016-11-21T01:33:46.303Z,9.71
2016-11-21T01:34:57.806Z,9.71
2016-11-21T01:36:08.833Z,9.72
2016-11-21T01:37:19.859Z,9.84
2016-11-21T01:38:30.900Z,9.75
2016-11-21T01:39:41.947Z,9.67
2016-11-21T01:40:53.016Z,9.67
2016-11-21T01:42:04.075Z,9.57
2016-11-21T01:43:15.311Z,9.56
2016-11-21T01:44:26.337Z,9.64
2016-11-21T01:45:37.364Z,9.55
2016-11-21T01:46:48.636Z,9.63
2016-11-21T01:47:59.669Z,9.53
2016-11-21T01:49:10.712Z,9.56
2016-11-21T01:50:21.745Z,9.56
2016-11-21T01:51:32.978Z,9.57
2016-11-21T01:52:44.267Z,9.57
2016-11-21T01:53:55.301Z,9.57
2016-11-21T01:55:06.729Z,9.55
2016-11-21T01:56:17.969Z,9.59
2016-11-21T01:57:29.018Z,9.55
2016-11-21T01:58:40.097Z,9.55
2016-11-21T01:59:51.134Z,9.53
2016-11-21T02:01:02.164Z,9.62
2016-11-21T02:02:13.203Z,9.55
2016-11-21T02:03:24.226Z,9.53
2016-11-21T02:04:35.315Z,9.52
2016-11-21T02:05:46.350Z,9.53
2016-11-21T02:06:57.374Z,9.59
2016-11-21T02:08:08.402Z,9.56
2016-11-21T02:09:19.644Z,9.57
2016-11-21T02:10:30.670Z,9.66
2016-11-21T02:11:41.700Z,9.63
2016-11-21T02:12:52.741Z,9.57
2016-11-21T02:14:03.978Z,9.52
2016-11-21T02:15:15.056Z,9.63
2016-11-21T02:16:26.089Z,9.56
2016-11-21T02:17:37.153Z,9.57
2016-11-21T02:18:48.177Z,9.57
2016-11-21T02:19:59.198Z,9.56
2016-11-21T02:21:10.294Z,9.57
2016-11-21T02:22:21.317Z,9.56
2016-11-21T02:23:32.352Z,9.66
2016-11-21T02:24:43.388Z,9.63
2016-11-21T02:25:54.418Z,9.62
2016-11-21T02:27:05.508Z,9.62
2016-11-21T02:28:16.537Z,9.67
2016-11-21T02:29:27.792Z,9.67
2016-11-21T02:30:38.822Z,9.62
2016-11-21T02:31:50.069Z,9.62
2016-11-21T02:33:01.206Z,9.64
2016-11-21T02:34:12.237Z,9.56
2016-11-21T02:35:23.271Z,9.59
2016-11-21T02:36:34.320Z,9.57
2016-11-21T02:37:45.352Z,9.59
2016-11-21T02:38:56.436Z,9.52
2016-11-21T02:40:07.462Z,9.64
2016-11-21T02:41:18.687Z,9.64
2016-11-21T02:42:29.728Z,9.7
2016-11-21T02:43:40.749Z,9.71
2016-11-21T02:44:51.851Z,9.71
2016-11-21T02:46:03.083Z,9.77
2016-11-21T02:47:14.101Z,9.84
2016-11-21T02:48:25.129Z,9.81
2016-11-21T02:49:36.172Z,9.75
2016-11-21T02:50:47.291Z,9.81
2016-11-21T02:51:58.312Z,9.67
2016-11-21T02:53:09.362Z,9.75
2016-11-21T02:54:20.432Z,9.89
2016-11-21T02:55:31.459Z,9.75
2016-11-21T02:56:42.535Z,9.81
2016-11-21T02:57:53.757Z,9.85
2016-11-21T02:59:04.796Z,9.9
2016-11-21T03:00:15.808Z,9.92
2016-11-21T03:01:26.830Z,9.95
2016-11-21T03:02:37.929Z,9.96
2016-11-21T03:03:49.374Z,9.95
2016-11-21T03:05:00.414Z,9.96
2016-11-21T03:06:11.464Z,9.98
2016-11-21T03:07:22.690Z,9.95
2016-11-21T03:08:33.778Z,9.93
2016-11-21T03:09:44.805Z,9.96
2016-11-21T03:10:55.833Z,9.98
2016-11-21T03:12:07.111Z,9.96
2016-11-21T03:13:18.145Z,10.02
2016-11-21T03:14:29.428Z,10.02
2016-11-21T03:15:40.670Z,10.1
2016-11-21T03:16:51.892Z,10.1
2016-11-21T03:18:02.926Z,10.08
2016-11-21T03:19:13.998Z,10.11
2016-11-21T03:20:25.085Z,10.11
2016-11-21T03:21:36.118Z,10.13
2016-11-21T03:22:47.135Z,10.11
2016-11-21T03:23:58.157Z,10.18
2016-11-21T03:25:09.208Z,10.29
2016-11-21T03:26:20.326Z,10.18
2016-11-21T03:27:31.347Z,10.28
2016-11-21T03:28:42.389Z,10.26
2016-11-21T03:29:53.416Z,10.35
2016-11-21T03:31:04.445Z,10.35
2016-11-21T03:32:15.732Z,10.29
2016-11-21T03:33:26.770Z,10.32
2016-11-21T03:34:37.799Z,10.35
2016-11-21T03:35:49.068Z,10.31
2016-11-21T03:37:00.088Z,10.33
2016-11-21T03:38:11.371Z,10.28
2016-11-21T03:39:22.399Z,10.31
2016-11-21T03:40:33.638Z,10.31
2016-11-21T03:41:44.891Z,10.36
2016-11-21T03:42:56.128Z,10.35
2016-11-21T03:44:07.206Z,10.41
2016-11-21T03:45:18.252Z,10.41
2016-11-21T03:46:29.283Z,10.38
2016-11-21T03:47:40.309Z,10.51
2016-11-21T03:48:51.551Z,10.47
2016-11-21T03:50:02.633Z,10.55
2016-11-21T03:51:13.679Z,10.61
2016-11-21T03:52:24.719Z,10.59
2016-11-21T03:53:35.750Z,10.61
2016-11-21T03:54:46.783Z,10.69
2016-11-21T03:55:57.866Z,10.66
2016-11-21T03:57:09.105Z,10.66
2016-11-21T03:58:20.342Z,10.65
2016-11-21T03:59:31.375Z,10.66
2016-11-21T04:00:42.410Z,10.72
2016-11-21T04:01:53.491Z,10.72
2016-11-21T04:03:04.507Z,10.75
2016-11-21T04:04:15.539Z,10.8
2016-11-21T04:05:26.571Z,10.72
2016-11-21T04:06:37.625Z,10.83
2016-11-21T04:07:48.710Z,10.8
2016-11-21T04:08:59.749Z,10.84
2016-11-21T04:10:10.993Z,10.77
2016-11-21T04:11:22.031Z,10.9
2016-11-21T04:12:33.101Z,10.85
2016-11-21T04:13:44.195Z,10.91
2016-11-21T04:14:55.232Z,10.9
2016-11-21T04:16:06.260Z,10.88
2016-11-21T04:17:17.316Z,10.94
2016-11-21T04:18:28.547Z,11
2016-11-21T04:19:39.633Z,11.03
2016-11-21T04:20:50.870Z,11.05
2016-11-21T04:22:02.114Z,11.03
2016-11-21T04:23:13.354Z,10.94
2016-11-21T04:24:24.380Z,11.1
2016-11-21T04:25:35.467Z,11.08
2016-11-21T04:26:46.500Z,11.03
2016-11-21T04:27:57.518Z,11.03
2016-11-21T04:29:08.539Z,11.08
2016-11-21T04:30:19.581Z,11.06
2016-11-21T04:31:30.670Z,11.1
2016-11-21T04:32:41.706Z,11.12
2016-11-21T04:33:52.735Z,11.08
2016-11-21T04:35:03.769Z,11.12
2016-11-21T04:36:15.006Z,11.21
2016-11-21T04:37:26.096Z,11.21
2016-11-21T04:38:37.131Z,11.16
2016-11-21T04:39:48.182Z,11.2
2016-11-21T04:40:59.219Z,11.27
2016-11-21T04:42:10.456Z,11.27
2016-11-21T04:43:21.543Z,11.28
2016-11-21T04:44:32.578Z,11.35
2016-11-21T04:45:43.622Z,11.33
2016-11-21T04:46:54.662Z,11.31
2016-11-21T04:48:05.693Z,11.31
2016-11-21T04:49:16.985Z,11.35
2016-11-21T04:50:28.023Z,11.39
2016-11-21T04:51:39.063Z,11.38
2016-11-21T04:52:50.083Z,11.48
2016-11-21T04:54:01.122Z,11.35
2016-11-21T04:55:12.211Z,11.43
2016-11-21T04:56:23.244Z,11.46
2016-11-21T04:57:34.482Z,11.42
2016-11-21T04:58:45.713Z,11.49
2016-11-21T04:59:56.744Z,11.53
2016-11-21T05:01:08.051Z,11.52
2016-11-21T05:02:19.085Z,11.57
2016-11-21T05:03:30.117Z,11.56
2016-11-21T05:04:41.157Z,11.53
2016-11-21T05:05:52.188Z,11.56
2016-11-21T05:07:03.297Z,11.63
2016-11-21T05:08:14.333Z,11.6
2016-11-21T05:09:25.364Z,11.53
2016-11-21T05:10:36.400Z,11.59
2016-11-21T05:11:47.435Z,11.67
2016-11-21T05:12:58.530Z,11.56
2016-11-21T05:14:09.557Z,11.53
2016-11-21T05:15:20.591Z,11.63
2016-11-21T05:16:31.626Z,11.59
2016-11-21T05:17:42.645Z,11.56
2016-11-21T05:18:54.132Z,11.56
2016-11-21T05:20:05.361Z,11.59
2016-11-21T05:21:16.630Z,11.57
2016-11-21T05:22:27.674Z,11.57
2016-11-21T05:23:38.710Z,11.61
2016-11-21T05:24:49.784Z,11.56
2016-11-21T05:26:00.848Z,11.57
2016-11-21T05:27:11.882Z,11.56
2016-11-21T05:28:22.924Z,11.51
2016-11-21T05:29:33.971Z,11.59
2016-11-21T05:30:45.067Z,11.6
2016-11-21T05:31:56.101Z,11.56
2016-11-21T05:33:07.132Z,11.59
2016-11-21T05:34:18.164Z,11.59
2016-11-21T05:35:29.192Z,11.59
2016-11-21T05:36:40.288Z,11.56
2016-11-21T05:37:51.315Z,11.61
2016-11-21T05:39:02.553Z,11.61
2016-11-21T05:40:13.576Z,11.59
2016-11-21T05:41:24.597Z,11.45
2016-11-21T05:42:35.683Z,11.57
2016-11-21T05:43:47.109Z,11.53
2016-11-21T05:44:58.144Z,11.52
2016-11-21T05:46:09.185Z,11.51
2016-11-21T05:47:20.212Z,11.46
2016-11-21T05:48:31.299Z,11.46
2016-11-21T05:49:42.324Z,11.46
2016-11-21T05:50:53.363Z,11.45
2016-11-21T05:52:04.606Z,11.45
2016-11-21T05:53:15.635Z,11.45
2016-11-21T05:54:26.701Z,11.45
2016-11-21T05:55:37.759Z,11.43
2016-11-21T05:56:48.802Z,11.48
2016-11-21T05:57:59.839Z,11.41
2016-11-21T05:59:11.069Z,11.42
2016-11-21T06:00:22.541Z,11.45
2016-11-21T06:01:33.582Z,11.48
2016-11-21T06:02:44.654Z,11.49
2016-11-21T06:03:55.686Z,11.57
2016-11-21T06:05:06.712Z,11.59
2016-11-21T06:06:17.826Z,11.52
2016-11-21T06:07:28.863Z,11.64
2016-11-21T06:08:39.905Z,11.59
2016-11-21T06:09:50.933Z,11.6
2016-11-21T06:11:01.972Z,11.59
2016-11-21T06:12:13.063Z,11.66
2016-11-21T06:13:24.118Z,11.71
2016-11-21T06:14:35.145Z,11.7
2016-11-21T06:15:46.176Z,11.75
2016-11-21T06:16:57.208Z,11.64
2016-11-21T06:18:08.291Z,11.63
2016-11-21T06:19:19.322Z,11.6
2016-11-21T06:20:30.357Z,11.63
2016-11-21T06:21:41.366Z,11.7
2016-11-21T06:22:52.397Z,11.63
2016-11-21T06:24:03.472Z,11.67
2016-11-21T06:25:14.509Z,11.7
2016-11-21T06:26:25.523Z,11.73
2016-11-21T06:27:36.568Z,11.7
2016-11-21T06:28:47.591Z,11.85
2016-11-21T06:29:58.664Z,11.82
2016-11-21T06:31:09.699Z,11.84
2016-11-21T06:32:20.732Z,11.81
2016-11-21T06:33:31.757Z,11.79
2016-11-21T06:34:42.821Z,11.85
2016-11-21T06:35:53.898Z,11.76
2016-11-21T06:37:04.931Z,11.84
2016-11-21T06:38:15.948Z,11.73
2016-11-21T06:39:27.019Z,11.73
2016-11-21T06:40:38.045Z,11.86
2016-11-21T06:41:49.142Z,11.76
2016-11-21T06:43:00.369Z,11.82
2016-11-21T06:44:11.397Z,11.79
2016-11-21T06:45:22.419Z,11.71
2016-11-21T06:46:33.456Z,11.67
2016-11-21T06:47:44.544Z,11.63
2016-11-21T06:48:55.573Z,11.63
2016-11-21T06:50:06.601Z,11.64
2016-11-21T06:51:17.640Z,11.73
2016-11-21T06:52:28.721Z,11.61
2016-11-21T06:53:39.813Z,11.68
2016-11-21T06:54:50.851Z,11.75
2016-11-21T06:56:01.885Z,11.67
2016-11-21T06:57:12.902Z,11.71
2016-11-21T06:58:23.935Z,11.71
2016-11-21T06:59:35.015Z,11.7
2016-11-21T07:00:46.045Z,11.68
2016-11-21T07:01:57.072Z,11.67
2016-11-21T07:03:08.097Z,11.7
2016-11-21T07:04:19.135Z,11.67
2016-11-21T07:05:30.228Z,11.67
2016-11-21T07:06:41.269Z,11.75
2016-11-21T07:07:52.307Z,11.68
2016-11-21T07:09:03.537Z,11.64
2016-11-21T07:10:14.594Z,11.7
2016-11-21T07:11:25.680Z,11.75
2016-11-21T07:12:36.707Z,11.75
2016-11-21T07:13:47.750Z,11.75
2016-11-21T07:14:58.769Z,11.73
2016-11-21T07:16:09.811Z,11.78
2016-11-21T07:17:20.900Z,11.82
2016-11-21T07:18:31.942Z,11.79
2016-11-21T07:19:42.966Z,11.81
2016-11-21T07:20:54.015Z,11.79
2016-11-21T07:22:05.246Z,11.82
2016-11-21T07:23:16.328Z,11.79
2016-11-21T07:24:27.596Z,11.84
2016-11-21T07:25:38.642Z,11.84
2016-11-21T07:26:49.676Z,11.85
2016-11-21T07:28:00.698Z,11.81
2016-11-21T07:29:11.788Z,11.79
2016-11-21T07:30:22.837Z,11.76
2016-11-21T07:31:34.080Z,11.79
2016-11-21T07:32:45.318Z,11.88
2016-11-21T07:33:56.354Z,11.88
2016-11-21T07:35:07.429Z,11.79
2016-11-21T07:36:18.454Z,11.81
2016-11-21T07:37:29.695Z,11.88
2016-11-21T07:38:40.931Z,11.89
2016-11-21T07:39:51.970Z,11.82
2016-11-21T07:41:03.052Z,11.82
2016-11-21T07:42:14.087Z,11.86
2016-11-21T07:43:25.126Z,11.89
2016-11-21T07:44:36.152Z,11.84
2016-11-21T07:45:47.392Z,11.97
2016-11-21T07:46:58.467Z,11.89
2016-11-21T07:48:09.503Z,11.98
2016-11-21T07:49:20.731Z,11.97
2016-11-21T07:50:31.969Z,11.89
2016-11-21T07:51:43.009Z,12
2016-11-21T07:52:54.116Z,11.98
2016-11-21T07:54:05.138Z,12.01
2016-11-21T07:55:16.166Z,12.03
2016-11-21T07:56:27.207Z,12.05
2016-11-21T07:57:38.258Z,12.05
2016-11-21T07:58:49.541Z,12.08
2016-11-21T08:00:00.766Z,12.08
2016-11-21T08:01:11.787Z,12.11
2016-11-21T08:02:22.815Z,12.15
2016-11-21T08:03:33.840Z,12.08
2016-11-21T08:04:44.920Z,12.15
2016-11-21T08:05:55.953Z,12.2
2016-11-21T08:07:06.968Z,12.2
2016-11-21T08:08:17.999Z,12.22
2016-11-21T08:09:29.031Z,12.29
2016-11-21T08:10:40.062Z,12.28
2016-11-21T08:11:51.305Z,12.25
2016-11-21T08:13:02.330Z,12.34
2016-11-21T08:14:13.563Z,12.34
2016-11-21T08:15:24.646Z,12.31
2016-11-21T08:16:35.688Z,12.31
2016-11-21T08:17:46.720Z,12.34
2016-11-21T08:18:57.769Z,12.34
2016-11-21T08:20:08.801Z,12.29
2016-11-21T08:21:19.888Z,12.38
2016-11-21T08:22:31.124Z,12.36
2016-11-21T08:23:42.162Z,12.38
2016-11-21T08:24:53.213Z,12.38
2016-11-21T08:26:04.241Z,12.38
2016-11-21T08:27:15.312Z,12.34
2016-11-21T08:28:26.552Z,12.44
2016-11-21T08:29:37.586Z,12.38
2016-11-21T08:30:48.619Z,12.43
2016-11-21T08:31:59.864Z,12.36
2016-11-21T08:33:10.964Z,12.43
2016-11-21T08:34:22.001Z,12.43
2016-11-21T08:35:33.023Z,12.37
2016-11-21T08:36:44.075Z,12.43
2016-11-21T08:37:55.111Z,12.4
2016-11-21T08:39:06.201Z,12.41
2016-11-21T08:40:17.235Z,12.45
2016-11-21T08:41:28.259Z,12.38
2016-11-21T08:42:39.273Z,12.45
2016-11-21T08:43:50.303Z,12.45
2016-11-21T08:45:01.820Z,12.47
2016-11-21T08:46:12.848Z,12.44
2016-11-21T08:47:23.884Z,12.41
2016-11-21T08:48:34.915Z,12.45
2016-11-21T08:49:46.151Z,12.38
2016-11-21T08:50:57.242Z,12.45
2016-11-21T08:52:08.468Z,12.44
2016-11-21T08:53:19.497Z,12.41
2016-11-21T08:54:30.533Z,12.41
2016-11-21T08:55:41.568Z,12.44
2016-11-21T08:56:52.642Z,12.43
2016-11-21T08:58:03.677Z,12.41
2016-11-21T08:59:14.706Z,12.4
2016-11-21T09:00:25.742Z,12.43
2016-11-21T09:01:36.788Z,12.43
2016-11-21T09:02:47.868Z,12.47
2016-11-21T09:03:58.896Z,12.37
2016-11-21T09:05:09.922Z,12.41
2016-11-21T09:06:20.948Z,12.38
2016-11-21T09:07:31.982Z,12.4
2016-11-21T09:08:43.068Z,12.4
2016-11-21T09:09:54.107Z,12.44
2016-11-21T09:11:05.135Z,12.44
2016-11-21T09:12:16.365Z,12.44
2016-11-21T09:13:27.404Z,12.43
2016-11-21T09:14:38.483Z,12.44
2016-11-21T09:15:49.508Z,12.43
2016-11-21T09:17:00.741Z,12.37
2016-11-21T09:18:11.778Z,12.52
2016-11-21T09:19:22.818Z,12.41
2016-11-21T09:20:34.103Z,12.43
2016-11-21T09:21:45.351Z,12.48
2016-11-21T09:22:56.389Z,12.47
2016-11-21T09:24:07.426Z,12.44
2016-11-21T09:25:18.447Z,12.41
2016-11-21T09:26:29.746Z,12.53
2016-11-21T09:27:40.774Z,12.53
2016-11-21T09:28:51.804Z,12.52
2016-11-21T09:30:03.037Z,12.52
2016-11-21T09:31:14.064Z,12.53
2016-11-21T09:32:25.149Z,12.51
2016-11-21T09:33:36.384Z,12.56
2016-11-21T09:34:47.879Z,12.56
2016-11-21T09:35:58.901Z,12.56
2016-11-21T09:37:09.935Z,12.52
2016-11-21T09:38:21.018Z,12.55
2016-11-21T09:39:32.055Z,12.56
2016-11-21T09:40:43.080Z,12.58
2016-11-21T09:41:54.106Z,12.58
2016-11-21T09:43:05.150Z,12.58
2016-11-21T09:44:16.435Z,12.56
2016-11-21T09:45:27.473Z,12.59
2016-11-21T09:46:38.511Z,12.58
2016-11-21T09:47:49.547Z,12.61
2016-11-21T09:49:00.597Z,12.58
2016-11-21T09:50:11.677Z,12.56
2016-11-21T09:51:22.717Z,12.59
2016-11-21T09:52:33.945Z,12.58
2016-11-21T09:53:45.001Z,12.55
2016-11-21T09:54:56.025Z,12.58
2016-11-21T09:56:07.098Z,12.58
2016-11-21T09:57:18.140Z,12.52
2016-11-21T09:58:29.207Z,12.55
2016-11-21T09:59:40.443Z,12.56
2016-11-21T10:00:51.705Z,12.53
2016-11-21T10:02:02.778Z,12.56
2016-11-21T10:03:13.805Z,12.56
2016-11-21T10:04:24.852Z,12.52
2016-11-21T10:05:36.101Z,12.53
2016-11-21T10:06:47.135Z,12.56
2016-11-21T10:07:58.424Z,12.55
2016-11-21T10:09:09.651Z,12.59
2016-11-21T10:10:20.696Z,12.56
2016-11-21T10:11:31.941Z,12.59
2016-11-21T10:12:42.968Z,12.53
2016-11-21T10:13:54.251Z,12.56
2016-11-21T10:15:05.302Z,12.53
2016-11-21T10:16:16.549Z,12.4
2016-11-21T10:17:27.781Z,12.43
2016-11-21T10:18:38.814Z,12.43
2016-11-21T10:19:49.910Z,12.52
2016-11-21T10:21:00.946Z,12.41
2016-11-21T10:22:12.180Z,12.56
2016-11-21T10:23:23.220Z,12.56
2016-11-21T10:24:34.461Z,12.47
2016-11-21T10:25:45.533Z,12.38
2016-11-21T10:26:56.565Z,12.44
2016-11-21T10:28:07.600Z,12.43
2016-11-21T10:29:18.666Z,12.4
2016-11-21T10:30:29.683Z,12.43
2016-11-21T10:31:40.778Z,12.37
2016-11-21T10:32:51.993Z,12.44
2016-11-21T10:34:03.030Z,12.38
2016-11-21T10:35:14.066Z,12.36
2016-11-21T10:36:25.095Z,12.41
2016-11-21T10:37:36.381Z,12.37
2016-11-21T10:38:47.399Z,12.33
2016-11-21T10:39:58.425Z,12.26
2016-11-21T10:41:09.464Z,12.26
2016-11-21T10:42:20.690Z,12.38
2016-11-21T10:43:31.782Z,12.38
2016-11-21T10:44:43.013Z,12.34
2016-11-21T10:45:54.059Z,12.31
2016-11-21T10:47:05.289Z,12.38
2016-11-21T10:48:16.344Z,12.29
2016-11-21T10:49:27.422Z,12.26
2016-11-21T10:50:38.464Z,12.31
2016-11-21T10:51:49.518Z,12.31
2016-11-21T10:53:00.544Z,12.28
2016-11-21T10:54:11.585Z,12.33
2016-11-21T10:55:23.107Z,12.31
2016-11-21T10:56:34.143Z,12.28
2016-11-21T10:57:45.183Z,12.28
2016-11-21T10:58:56.425Z,12.36
2016-11-21T11:00:07.469Z,12.31
2016-11-21T11:01:18.558Z,12.25
2016-11-21T11:02:29.599Z,12.36
2016-11-21T11:03:40.651Z,12.26
2016-11-21T11:04:51.688Z,12.26
2016-11-21T11:06:02.931Z,12.29
2016-11-21T11:07:14.227Z,12.34
2016-11-21T11:08:25.254Z,12.28
2016-11-21T11:09:36.479Z,12.36
2016-11-21T11:10:47.511Z,12.38
2016-11-21T11:11:58.534Z,12.36
2016-11-21T11:13:09.842Z,12.37
2016-11-21T11:14:20.879Z,12.4
2016-11-21T11:15:31.917Z,12.41
2016-11-21T11:16:42.947Z,12.38
2016-11-21T11:17:53.973Z,12.38
2016-11-21T11:19:05.052Z,12.38
2016-11-21T11:20:16.090Z,12.38
2016-11-21T11:21:27.127Z,12.4
2016-11-21T11:22:38.160Z,12.37
2016-11-21T11:23:49.187Z,12.47
2016-11-21T11:25:00.263Z,12.45
2016-11-21T11:26:11.308Z,12.45
2016-11-21T11:27:22.331Z,12.41
2016-11-21T11:28:33.558Z,12.48
2016-11-21T11:29:46.210Z,12.44
2016-11-21T11:30:59.940Z,12.41
2016-11-21T11:32:12.278Z,12.56
2016-11-21T11:33:24.583Z,12.52
2016-11-21T11:34:36.404Z,12.59
2016-11-21T11:35:47.641Z,12.56
2016-11-21T11:36:58.735Z,12.53
2016-11-21T11:38:10.174Z,12.52
2016-11-21T11:39:22.442Z,12.51
2016-11-21T11:40:33.721Z,12.59
2016-11-21T11:41:46.369Z,12.58
2016-11-21T11:44:10.349Z,12.56
2016-11-21T11:45:21.391Z,12.56
2016-11-21T11:46:32.629Z,12.61
2016-11-21T11:47:43.869Z,12.58
2016-11-21T11:48:55.165Z,12.59
2016-11-21T11:50:06.187Z,12.65
2016-11-21T11:51:17.234Z,12.56
2016-11-21T11:52:28.300Z,12.62
2016-11-21T11:53:39.536Z,12.61
2016-11-21T11:54:50.618Z,12.61
2016-11-21T11:56:01.627Z,12.73
2016-11-21T11:57:12.667Z,12.65
2016-11-21T11:58:23.693Z,12.7
2016-11-21T11:59:34.927Z,12.66
2016-11-21T12:00:46.017Z,12.59
2016-11-21T12:01:57.053Z,12.66
2016-11-21T12:03:08.297Z,12.7
2016-11-21T12:04:19.337Z,12.77
2016-11-21T12:05:30.368Z,12.7
2016-11-21T12:06:41.451Z,12.71
2016-11-21T12:07:52.494Z,12.71
2016-11-21T12:09:03.523Z,12.7
2016-11-21T12:10:14.562Z,12.63
2016-11-21T12:11:25.601Z,12.7
2016-11-21T12:12:36.705Z,12.73
2016-11-21T12:13:47.733Z,12.7
2016-11-21T12:14:58.774Z,12.7
2016-11-21T12:16:09.857Z,12.69
2016-11-21T12:17:20.898Z,12.56
2016-11-21T12:18:32.191Z,12.71
2016-11-21T12:19:43.211Z,12.66
2016-11-21T12:20:54.244Z,12.66
2016-11-21T12:22:05.679Z,12.69
2016-11-21T12:23:16.712Z,12.74
2016-11-21T12:24:27.839Z,12.71
2016-11-21T12:25:38.856Z,12.71
2016-11-21T12:26:49.889Z,12.77
2016-11-21T12:28:00.922Z,12.77
2016-11-21T12:29:11.951Z,12.73
2016-11-21T12:30:23.240Z,12.71
2016-11-21T12:31:34.270Z,12.8
2016-11-21T12:32:45.286Z,12.73
2016-11-21T12:33:56.317Z,12.73
2016-11-21T12:35:07.356Z,12.73
2016-11-21T12:36:18.453Z,12.83
2016-11-21T12:37:29.498Z,12.84
2016-11-21T12:38:40.743Z,12.8
2016-11-21T12:39:51.776Z,12.86
2016-11-21T12:41:02.809Z,12.8
2016-11-21T12:42:13.901Z,12.8
2016-11-21T12:43:25.290Z,12.8
2016-11-21T12:44:36.428Z,12.86
2016-11-21T12:45:47.452Z,12.77
2016-11-21T12:46:58.485Z,12.91
2016-11-21T12:48:09.574Z,12.88
2016-11-21T12:49:20.640Z,12.89
2016-11-21T12:50:31.678Z,12.96
2016-11-21T12:51:42.715Z,12.86
2016-11-21T12:52:53.751Z,12.95
2016-11-21T12:54:05.025Z,12.84
2016-11-21T12:55:16.053Z,12.8
2016-11-21T12:56:27.078Z,12.78
2016-11-21T12:57:38.141Z,12.88
2016-11-21T12:58:49.174Z,12.86
2016-11-21T13:00:00.264Z,12.92
2016-11-21T13:01:11.305Z,12.94
2016-11-21T13:02:22.379Z,12.92
2016-11-21T13:03:33.621Z,12.86
2016-11-21T13:04:44.871Z,12.96
2016-11-21T13:05:55.954Z,12.91
2016-11-21T13:07:07.003Z,12.89
2016-11-21T13:08:18.034Z,12.94
2016-11-21T13:09:29.280Z,12.86
2016-11-21T13:10:40.506Z,12.88
2016-11-21T13:11:51.578Z,12.92
2016-11-21T13:13:02.627Z,12.96
2016-11-21T13:14:13.669Z,12.95
2016-11-21T13:15:24.689Z,13.06
2016-11-21T13:16:35.740Z,12.96
2016-11-21T13:17:46.825Z,13.06
2016-11-21T13:18:57.860Z,12.99
2016-11-21T13:20:08.894Z,13.02
2016-11-21T13:21:19.934Z,13.02
2016-11-21T13:22:30.966Z,13.06
2016-11-21T13:23:42.066Z,13.03
2016-11-21T13:24:53.090Z,13.06
2016-11-21T13:26:04.126Z,13.01
2016-11-21T13:27:15.350Z,13.01
2016-11-21T13:28:26.376Z,13.01
2016-11-21T13:29:37.461Z,13.09
2016-11-21T13:30:48.478Z,13.11
2016-11-21T13:31:59.500Z,13.1
2016-11-21T13:33:10.526Z,13.07
2016-11-21T13:34:21.563Z,13.07
2016-11-21T13:35:32.648Z,13.06
2016-11-21T13:36:43.875Z,13.07
2016-11-21T13:37:54.910Z,13.06
2016-11-21T13:39:05.928Z,13.02
2016-11-21T13:40:16.950Z,13.11
2016-11-21T13:41:28.032Z,13.1
2016-11-21T13:42:39.059Z,13.09
2016-11-21T13:43:50.090Z,13.11
2016-11-21T13:45:01.123Z,13.07
2016-11-21T13:46:12.146Z,13.06
2016-11-21T13:47:23.233Z,13.06
2016-11-21T13:48:34.265Z,13.06
2016-11-21T13:49:45.296Z,13.11
2016-11-21T13:50:56.525Z,13.1
2016-11-21T13:52:07.567Z,13.1
2016-11-21T13:53:18.654Z,13.1
2016-11-21T13:54:29.688Z,13.06
2016-11-21T13:55:40.723Z,13.11
2016-11-21T13:56:51.771Z,13.09
2016-11-21T13:58:02.799Z,13.1
2016-11-21T13:59:13.876Z,13.03
2016-11-21T14:00:24.894Z,13.03
2016-11-21T14:01:35.935Z,13.01
2016-11-21T14:02:46.975Z,13.01
2016-11-21T14:03:58.006Z,13.03
2016-11-21T14:05:09.101Z,13.01
2016-11-21T14:06:20.147Z,12.95
2016-11-21T14:07:31.182Z,12.89
2016-11-21T14:08:42.212Z,12.92
2016-11-21T14:09:53.261Z,12.84
2016-11-21T14:11:04.543Z,12.94
2016-11-21T14:12:15.781Z,12.88
2016-11-21T14:13:26.795Z,12.98
2016-11-21T14:14:37.827Z,12.98
2016-11-21T14:15:49.065Z,13.02
2016-11-21T14:17:00.148Z,13.09
2016-11-21T14:18:11.178Z,13.09
2016-11-21T14:19:22.206Z,13.11
2016-11-21T14:20:33.240Z,13.11
2016-11-21T14:21:44.262Z,13.13
2016-11-21T14:22:55.768Z,13.11
2016-11-21T14:24:06.791Z,13.13
2016-11-21T14:25:18.231Z,13.16
2016-11-21T14:26:29.263Z,13.16
2016-11-21T14:27:40.302Z,13.21
2016-11-21T14:28:51.383Z,13.21
2016-11-21T14:30:02.416Z,13.21
2016-11-21T14:31:13.454Z,13.17
2016-11-21T14:32:24.481Z,13.19
2016-11-21T14:33:35.722Z,13.13
2016-11-21T14:34:46.811Z,13.14
2016-11-21T14:35:58.075Z,13.11
2016-11-21T14:37:09.109Z,13.1
2016-11-21T14:38:20.133Z,13.09
2016-11-21T14:39:31.361Z,13.01
2016-11-21T14:40:42.456Z,13.09
2016-11-21T14:41:53.496Z,13.03
2016-11-21T14:43:04.547Z,13.02
2016-11-21T14:44:15.782Z,12.96
2016-11-21T14:45:26.814Z,12.92
2016-11-21T14:46:37.888Z,12.88
2016-11-21T14:47:48.936Z,12.95
2016-11-21T14:48:59.967Z,13.02
2016-11-21T14:50:11.008Z,13.06
2016-11-21T14:51:22.045Z,13.03
2016-11-21T14:52:33.126Z,13.07
2016-11-21T14:53:44.162Z,13.1
2016-11-21T14:54:55.213Z,13.09
2016-11-21T14:56:06.247Z,13.13
2016-11-21T14:57:17.284Z,13.13
2016-11-21T14:58:28.402Z,13.14
2016-11-21T14:59:39.434Z,13.14
2016-11-21T15:00:50.460Z,13.16
2016-11-21T15:02:01.472Z,13.19
2016-11-21T15:03:12.506Z,13.29
2016-11-21T15:04:23.590Z,13.19
2016-11-21T15:05:34.827Z,13.31
2016-11-21T15:06:45.858Z,13.25
2016-11-21T15:07:56.898Z,13.24
2016-11-21T15:09:07.932Z,13.16
2016-11-21T15:10:19.026Z,13.21
2016-11-21T15:11:30.263Z,13.28
2016-11-21T15:12:41.304Z,13.17
2016-11-21T15:13:52.324Z,13.25
2016-11-21T15:15:03.416Z,13.2
2016-11-21T15:16:14.655Z,13.2
2016-11-21T15:17:25.682Z,13.25
2016-11-21T15:18:36.714Z,13.25
2016-11-21T15:19:47.945Z,13.25
2016-11-21T15:20:59.024Z,13.27
2016-11-21T15:22:10.046Z,13.21
2016-11-21T15:23:21.084Z,13.2